createdAt,value
2023-02-12T00:00:19.631Z,3.87
2023-02-12T00:01:19.522Z,3.87
2023-02-12T00:02:19.524Z,3.88
2023-02-12T00:03:19.473Z,3.94
2023-02-12T00:04:19.369Z,3.83
2023-02-12T00:05:19.274Z,3.83
2023-02-12T00:06:19.229Z,3.87
2023-02-12T00:07:19.172Z,3.87
2023-02-12T00:08:19.132Z,3.87
2023-02-12T00:09:19.057Z,3.87
2023-02-12T00:10:18.979Z,3.95
2023-02-12T00:11:18.944Z,3.94
2023-02-12T00:12:18.896Z,3.96
2023-02-12T00:13:18.859Z,3.99
2023-02-12T00:14:18.743Z,3.94
2023-02-12T00:15:18.700Z,3.92
2023-02-12T00:16:18.691Z,3.98
2023-02-12T00:17:18.576Z,3.92
2023-02-12T00:18:18.536Z,3.88
2023-02-12T00:19:18.486Z,3.91
2023-02-12T00:20:18.398Z,3.86
2023-02-12T00:21:18.404Z,3.83
2023-02-12T00:22:18.280Z,3.84
2023-02-12T00:23:18.236Z,3.83
2023-02-12T00:24:18.177Z,3.80
2023-02-12T00:25:18.115Z,3.84
2023-02-12T00:26:18.075Z,3.86
2023-02-12T00:27:17.985Z,3.88
2023-02-12T00:28:18.020Z,3.87
2023-02-12T00:29:17.892Z,3.92
2023-02-12T00:30:17.825Z,3.88
2023-02-12T00:31:17.895Z,3.95
2023-02-12T00:32:17.696Z,3.86
2023-02-12T00:33:17.616Z,3.92
2023-02-12T00:34:17.619Z,3.91
2023-02-12T00:35:17.516Z,3.91
2023-02-12T00:36:17.480Z,3.86
2023-02-12T00:37:17.419Z,3.91
2023-02-12T00:38:17.367Z,3.86
2023-02-12T00:39:17.273Z,3.98
2023-02-12T00:40:17.220Z,3.95
2023-02-12T00:41:17.166Z,3.95
2023-02-12T00:42:17.137Z,3.96
2023-02-12T00:43:17.033Z,3.92
2023-02-12T00:44:16.989Z,3.95
2023-02-12T00:45:16.940Z,3.91
2023-02-12T00:46:16.944Z,3.95
2023-02-12T00:47:16.848Z,3.94
2023-02-12T00:48:16.756Z,3.92
2023-02-12T00:49:16.705Z,3.92
2023-02-12T00:50:16.628Z,3.87
2023-02-12T00:51:16.581Z,3.99
2023-02-12T00:52:16.539Z,3.95
2023-02-12T00:53:16.433Z,4.02
2023-02-12T00:54:16.399Z,3.95
2023-02-12T00:55:16.340Z,4.04
2023-02-12T00:56:16.312Z,4.01
2023-02-12T00:57:16.230Z,3.98
2023-02-12T00:58:18.719Z,4.02
2023-02-12T00:59:16.113Z,3.87
2023-02-12T01:00:16.064Z,3.96
2023-02-12T01:01:16.048Z,3.95
2023-02-12T01:02:15.966Z,3.98
2023-02-12T01:03:15.895Z,3.91
2023-02-12T01:04:15.814Z,3.87
2023-02-12T01:05:15.801Z,3.94
2023-02-12T01:06:15.713Z,3.94
2023-02-12T01:07:15.644Z,3.88
2023-02-12T01:08:15.601Z,3.91
2023-02-12T01:09:15.519Z,3.92
2023-02-12T01:10:15.485Z,3.86
2023-02-12T01:11:15.402Z,3.88
2023-02-12T01:12:15.384Z,3.88
2023-02-12T01:13:15.297Z,3.98
2023-02-12T01:14:15.244Z,3.88
2023-02-12T01:15:15.168Z,3.87
2023-02-12T01:16:15.174Z,3.95
2023-02-12T01:17:15.040Z,3.81
2023-02-12T01:18:14.982Z,3.88
2023-02-12T01:19:14.941Z,3.86
2023-02-12T01:20:14.910Z,3.87
2023-02-12T01:21:14.843Z,3.87
2023-02-12T01:22:14.768Z,3.83
2023-02-12T01:23:14.723Z,3.88
2023-02-12T01:24:14.643Z,3.92
2023-02-12T01:25:14.572Z,3.86
2023-02-12T01:26:14.561Z,3.84
2023-02-12T01:27:14.454Z,3.83
2023-02-12T01:28:14.443Z,3.83
2023-02-12T01:29:14.355Z,3.84
2023-02-12T01:30:14.302Z,3.83
2023-02-12T01:31:14.305Z,3.86
2023-02-12T01:32:14.229Z,3.83
2023-02-12T01:33:14.139Z,3.84
2023-02-12T01:34:14.052Z,3.84
2023-02-12T01:35:13.994Z,3.88
2023-02-12T01:36:13.950Z,3.84
2023-02-12T01:37:13.857Z,3.77
2023-02-12T01:38:13.857Z,3.87
2023-02-12T01:39:13.766Z,3.77
2023-02-12T01:40:13.697Z,3.84
2023-02-12T01:41:13.641Z,3.83
2023-02-12T01:42:13.580Z,3.83
2023-02-12T01:43:13.527Z,3.87
2023-02-12T01:44:13.493Z,3.87
2023-02-12T01:45:13.419Z,3.87
2023-02-12T01:46:13.395Z,3.86
2023-02-12T01:47:13.291Z,3.83
2023-02-12T01:48:13.202Z,3.87
2023-02-12T01:49:13.180Z,3.86
2023-02-12T01:50:13.086Z,3.87
2023-02-12T01:51:13.089Z,3.83
2023-02-12T01:52:12.983Z,3.84
2023-02-12T01:53:12.944Z,3.86
2023-02-12T01:54:12.865Z,3.88
2023-02-12T01:55:12.805Z,3.88
2023-02-12T01:56:12.770Z,3.81
2023-02-12T01:57:12.700Z,3.87
2023-02-12T01:58:12.615Z,3.86
2023-02-12T01:59:12.596Z,3.91
2023-02-12T02:00:12.537Z,3.87
2023-02-12T02:01:12.458Z,3.87
2023-02-12T02:02:12.401Z,3.87
2023-02-12T02:03:12.396Z,3.94
2023-02-12T02:04:12.318Z,3.86
2023-02-12T02:05:12.206Z,3.91
2023-02-12T02:06:12.184Z,3.87
2023-02-12T02:07:12.102Z,3.87
2023-02-12T02:08:12.021Z,3.87
2023-02-12T02:09:12.031Z,3.88
2023-02-12T02:10:11.948Z,3.84
2023-02-12T02:11:11.886Z,3.87
2023-02-12T02:12:11.806Z,3.91
2023-02-12T02:13:11.756Z,3.94
2023-02-12T02:14:11.706Z,3.88
2023-02-12T02:15:11.642Z,3.94
2023-02-12T02:16:11.647Z,3.84
2023-02-12T02:17:11.525Z,3.92
2023-02-12T02:18:11.427Z,3.87
2023-02-12T02:19:11.391Z,3.87
2023-02-12T02:20:11.348Z,3.87
2023-02-12T02:21:11.290Z,3.91
2023-02-12T02:22:11.208Z,3.96
2023-02-12T02:23:11.164Z,3.88
2023-02-12T02:24:11.128Z,3.98
2023-02-12T02:25:11.014Z,4.02
2023-02-12T02:26:11.013Z,3.96
2023-02-12T02:27:10.923Z,3.94
2023-02-12T02:28:10.848Z,3.95
2023-02-12T02:29:10.832Z,4.04
2023-02-12T02:30:10.759Z,4.06
2023-02-12T02:31:10.992Z,3.95
2023-02-12T02:32:10.669Z,3.95
2023-02-12T02:33:10.562Z,3.98
2023-02-12T02:34:10.481Z,3.91
2023-02-12T02:35:10.436Z,3.98
2023-02-12T02:36:10.414Z,4.05
2023-02-12T02:37:10.334Z,4.06
2023-02-12T02:38:10.256Z,4.08
2023-02-12T02:39:10.205Z,4.06
2023-02-12T02:40:10.149Z,4.04
2023-02-12T02:41:10.110Z,4.05
2023-02-12T02:42:10.059Z,4.13
2023-02-12T02:43:09.949Z,4.12
2023-02-12T02:44:09.930Z,4.14
2023-02-12T02:45:09.888Z,4.13
2023-02-12T02:46:09.815Z,4.10
2023-02-12T02:47:09.757Z,4.12
2023-02-12T02:48:09.668Z,4.10
2023-02-12T02:49:09.631Z,4.12
2023-02-12T02:50:09.537Z,4.16
2023-02-12T02:51:09.531Z,4.08
2023-02-12T02:52:09.462Z,4.08
2023-02-12T02:53:09.392Z,4.12
2023-02-12T02:54:09.319Z,4.08
2023-02-12T02:55:09.249Z,4.12
2023-02-12T02:56:09.216Z,4.13
2023-02-12T02:57:09.171Z,4.16
2023-02-12T02:58:09.087Z,4.16
2023-02-12T02:59:09.025Z,4.20
2023-02-12T03:00:08.993Z,4.20
2023-02-12T03:01:09.034Z,4.17
2023-02-12T03:02:08.881Z,4.13
2023-02-12T03:03:08.937Z,4.17
2023-02-12T03:04:08.738Z,4.22
2023-02-12T03:05:08.691Z,4.19
2023-02-12T03:06:08.625Z,4.12
2023-02-12T03:07:08.584Z,4.20
2023-02-12T03:08:08.498Z,4.19
2023-02-12T03:09:08.448Z,4.17
2023-02-12T03:10:08.382Z,4.13
2023-02-12T03:11:08.352Z,4.14
2023-02-12T03:12:08.254Z,4.23
2023-02-12T03:13:08.251Z,4.17
2023-02-12T03:14:08.158Z,4.12
2023-02-12T03:15:08.094Z,4.14
2023-02-12T03:16:08.093Z,4.24
2023-02-12T03:17:07.989Z,4.14
2023-02-12T03:18:07.915Z,4.14
2023-02-12T03:19:07.878Z,4.16
2023-02-12T03:20:07.795Z,4.20
2023-02-12T03:21:07.778Z,4.22
2023-02-12T03:22:07.703Z,4.30
2023-02-12T03:23:07.606Z,4.14
2023-02-12T03:24:07.575Z,4.26
2023-02-12T03:25:07.525Z,4.10
2023-02-12T03:26:07.468Z,4.28
2023-02-12T03:27:07.444Z,4.30
2023-02-12T03:28:07.372Z,4.14
2023-02-12T03:29:07.264Z,4.23
2023-02-12T03:30:07.220Z,4.12
2023-02-12T03:31:07.253Z,4.14
2023-02-12T03:32:07.120Z,4.28
2023-02-12T03:33:07.045Z,4.19
2023-02-12T03:34:06.994Z,4.24
2023-02-12T03:35:06.934Z,4.17
2023-02-12T03:36:06.887Z,4.31
2023-02-12T03:37:06.821Z,4.23
2023-02-12T03:38:06.750Z,4.22
2023-02-12T03:39:06.703Z,4.26
2023-02-12T03:40:06.599Z,4.24
2023-02-12T03:41:06.615Z,4.26
2023-02-12T03:42:06.522Z,4.23
2023-02-12T03:43:06.452Z,4.26
2023-02-12T03:44:06.399Z,4.30
2023-02-12T03:45:06.341Z,4.23
2023-02-12T03:46:06.318Z,4.19
2023-02-12T03:47:06.243Z,4.30
2023-02-12T03:48:06.144Z,4.30
2023-02-12T03:49:06.102Z,4.30
2023-02-12T03:50:06.052Z,4.30
2023-02-12T03:51:06.015Z,4.37
2023-02-12T03:52:05.925Z,4.34
2023-02-12T03:53:05.863Z,4.26
2023-02-12T03:54:05.798Z,4.28
2023-02-12T03:55:05.743Z,4.31
2023-02-12T03:56:05.703Z,4.30
2023-02-12T03:57:05.614Z,4.31
2023-02-12T03:58:05.583Z,4.30
2023-02-12T03:59:05.510Z,4.30
2023-02-12T04:00:05.454Z,4.30
2023-02-12T04:01:05.623Z,4.28
2023-02-12T04:02:05.387Z,4.22
2023-02-12T04:03:05.267Z,4.23
2023-02-12T04:04:05.306Z,4.20
2023-02-12T04:05:05.141Z,4.30
2023-02-12T04:06:05.103Z,4.24
2023-02-12T04:07:05.057Z,4.19
2023-02-12T04:08:04.974Z,4.23
2023-02-12T04:09:04.918Z,4.17
2023-02-12T04:10:04.862Z,4.26
2023-02-12T04:11:04.816Z,4.24
2023-02-12T04:12:04.716Z,4.24
2023-02-12T04:13:04.656Z,4.24
2023-02-12T04:14:04.644Z,4.16
2023-02-12T04:15:04.574Z,4.17
2023-02-12T04:16:04.506Z,4.23
2023-02-12T04:17:04.595Z,4.20
2023-02-12T04:18:04.388Z,4.23
2023-02-12T04:19:04.356Z,4.24
2023-02-12T04:20:04.302Z,4.23
2023-02-12T04:21:04.216Z,4.28
2023-02-12T04:22:04.169Z,4.35
2023-02-12T04:23:04.093Z,4.31
2023-02-12T04:24:04.030Z,4.32
2023-02-12T04:25:03.976Z,4.20
2023-02-12T04:26:03.934Z,4.30
2023-02-12T04:27:03.871Z,4.30
2023-02-12T04:28:03.858Z,4.35
2023-02-12T04:29:03.750Z,4.31
2023-02-12T04:30:03.666Z,4.30
2023-02-12T04:31:03.731Z,4.30
2023-02-12T04:32:03.561Z,4.32
2023-02-12T04:33:03.536Z,4.30
2023-02-12T04:34:03.446Z,4.28
2023-02-12T04:35:03.401Z,4.30
2023-02-12T04:36:03.359Z,4.26
2023-02-12T04:37:03.308Z,4.34
2023-02-12T04:38:03.240Z,4.31
2023-02-12T04:39:03.162Z,4.24
2023-02-12T04:40:03.092Z,4.30
2023-02-12T04:41:03.062Z,4.32
2023-02-12T04:42:02.962Z,4.28
2023-02-12T04:43:02.953Z,4.22
2023-02-12T04:44:02.855Z,4.24
2023-02-12T04:45:02.813Z,4.26
2023-02-12T04:46:02.813Z,4.30
2023-02-12T04:47:02.716Z,4.22
2023-02-12T04:48:02.626Z,4.24
2023-02-12T04:49:02.576Z,4.31
2023-02-12T04:50:02.529Z,4.31
2023-02-12T04:51:02.448Z,4.28
2023-02-12T04:52:02.430Z,4.19
2023-02-12T04:53:02.355Z,4.22
2023-02-12T04:54:02.309Z,4.26
2023-02-12T04:55:02.208Z,4.26
2023-02-12T04:56:02.172Z,4.30
2023-02-12T04:57:02.119Z,4.24
2023-02-12T04:58:02.098Z,4.16
2023-02-12T04:59:01.965Z,4.22
2023-02-12T05:00:01.917Z,4.24
2023-02-12T05:01:01.887Z,4.24
2023-02-12T05:02:01.825Z,4.24
2023-02-12T05:03:01.789Z,4.22
2023-02-12T05:04:01.701Z,4.17
2023-02-12T05:05:01.681Z,4.19
2023-02-12T05:06:01.587Z,4.17
2023-02-12T05:07:01.534Z,4.24
2023-02-12T05:08:01.452Z,4.14
2023-02-12T05:09:01.388Z,4.28
2023-02-12T05:10:01.362Z,4.26
2023-02-12T05:11:01.294Z,4.26
2023-02-12T05:12:01.244Z,4.24
2023-02-12T05:13:01.171Z,4.26
2023-02-12T05:14:01.110Z,4.23
2023-02-12T05:15:01.046Z,4.30
2023-02-12T05:16:01.143Z,4.24
2023-02-12T05:17:00.943Z,4.23
2023-02-12T05:18:00.908Z,4.23
2023-02-12T05:19:00.792Z,4.23
2023-02-12T05:20:00.773Z,4.17
2023-02-12T05:21:00.703Z,4.23
2023-02-12T05:22:00.660Z,4.23
2023-02-12T05:23:00.568Z,4.26
2023-02-12T05:24:00.544Z,4.22
2023-02-12T05:25:00.469Z,4.16
2023-02-12T05:26:00.429Z,4.22
2023-02-12T05:27:00.364Z,4.26
2023-02-12T05:28:00.395Z,4.20
2023-02-12T05:29:00.230Z,4.31
2023-02-12T05:30:00.200Z,4.23
2023-02-12T05:31:00.240Z,4.19
2023-02-12T05:32:00.224Z,4.31
2023-02-12T05:33:00.010Z,4.20
2023-02-12T05:33:59.938Z,4.26
2023-02-12T05:34:59.868Z,4.30
2023-02-12T05:35:59.830Z,4.31
2023-02-12T05:36:59.749Z,4.22
2023-02-12T05:37:59.691Z,4.32
2023-02-12T05:38:59.672Z,4.31
2023-02-12T05:39:59.584Z,4.30
2023-02-12T05:40:59.518Z,4.34
2023-02-12T05:41:59.471Z,4.26
2023-02-12T05:42:59.418Z,4.17
2023-02-12T05:43:59.360Z,4.30
2023-02-12T05:44:59.303Z,4.28
2023-02-12T05:45:59.274Z,4.35
2023-02-12T05:46:59.201Z,4.34
2023-02-12T05:47:59.119Z,4.20
2023-02-12T05:48:59.060Z,4.30
2023-02-12T05:49:58.999Z,4.22
2023-02-12T05:50:58.952Z,4.28
2023-02-12T05:51:58.905Z,4.28
2023-02-12T05:52:58.808Z,4.28
2023-02-12T05:53:58.762Z,4.34
2023-02-12T05:54:58.687Z,4.31
2023-02-12T05:55:58.655Z,4.32
2023-02-12T05:56:58.600Z,4.35
2023-02-12T05:57:58.521Z,4.24
2023-02-12T05:58:58.472Z,4.35
2023-02-12T05:59:58.432Z,4.35
2023-02-12T06:00:58.364Z,4.30
2023-02-12T06:01:58.280Z,4.32
2023-02-12T06:02:58.263Z,4.38
2023-02-12T06:03:58.212Z,4.38
2023-02-12T06:04:58.124Z,4.40
2023-02-12T06:05:58.288Z,4.26
2023-02-12T06:06:57.981Z,4.24
2023-02-12T06:07:57.942Z,4.32
2023-02-12T06:08:57.878Z,4.35
2023-02-12T06:09:57.844Z,4.35
2023-02-12T06:10:57.765Z,4.41
2023-02-12T06:11:57.744Z,4.32
2023-02-12T06:12:57.636Z,4.40
2023-02-12T06:13:57.595Z,4.41
2023-02-12T06:14:57.559Z,4.34
2023-02-12T06:15:57.860Z,4.35
2023-02-12T06:16:57.427Z,4.35
2023-02-12T06:17:57.385Z,4.34
2023-02-12T06:18:57.259Z,4.38
2023-02-12T06:19:57.255Z,4.28
2023-02-12T06:20:57.173Z,4.37
2023-02-12T06:21:57.114Z,4.34
2023-02-12T06:22:57.061Z,4.35
2023-02-12T06:23:57.020Z,4.28
2023-02-12T06:24:56.909Z,4.34
2023-02-12T06:25:57.350Z,4.35
2023-02-12T06:26:56.815Z,4.37
2023-02-12T06:27:56.767Z,4.35
2023-02-12T06:28:56.734Z,4.37
2023-02-12T06:29:56.658Z,4.40
2023-02-12T06:30:56.744Z,4.42
2023-02-12T06:31:56.687Z,4.45
2023-02-12T06:32:56.481Z,4.48
2023-02-12T06:33:56.423Z,4.40
2023-02-12T06:34:56.371Z,4.38
2023-02-12T06:35:56.821Z,4.49
2023-02-12T06:36:56.252Z,4.44
2023-02-12T06:37:56.169Z,4.41
2023-02-12T06:38:56.169Z,4.48
2023-02-12T06:39:56.057Z,4.42
2023-02-12T06:40:56.013Z,4.40
2023-02-12T06:41:55.944Z,4.38
2023-02-12T06:42:55.903Z,4.50
2023-02-12T06:43:55.871Z,4.40
2023-02-12T06:44:55.769Z,4.41
2023-02-12T06:45:55.951Z,4.42
2023-02-12T06:46:55.725Z,4.45
2023-02-12T06:47:55.595Z,4.44
2023-02-12T06:48:55.546Z,4.38
2023-02-12T06:49:55.477Z,4.48
2023-02-12T06:50:55.436Z,4.41
2023-02-12T06:51:55.376Z,4.44
2023-02-12T06:52:55.289Z,4.45
2023-02-12T06:53:55.234Z,4.50
2023-02-12T06:54:55.191Z,4.48
2023-02-12T06:55:55.383Z,4.44
2023-02-12T06:56:55.095Z,4.40
2023-02-12T06:57:54.996Z,4.44
2023-02-12T06:58:55.063Z,4.37
2023-02-12T06:59:54.899Z,4.49
2023-02-12T07:00:54.847Z,4.40
2023-02-12T07:01:54.802Z,4.40
2023-02-12T07:02:54.712Z,4.49
2023-02-12T07:03:54.713Z,4.44
2023-02-12T07:04:54.590Z,4.37
2023-02-12T07:05:54.875Z,4.45
2023-02-12T07:06:54.504Z,4.42
2023-02-12T07:07:54.409Z,4.40
2023-02-12T07:08:54.370Z,4.44
2023-02-12T07:09:54.311Z,4.40
2023-02-12T07:10:54.279Z,4.49
2023-02-12T07:11:54.216Z,4.44
2023-02-12T07:12:54.134Z,4.41
2023-02-12T07:13:54.075Z,4.44
2023-02-12T07:14:54.024Z,4.40
2023-02-12T07:15:54.318Z,4.42
2023-02-12T07:16:56.295Z,4.40
2023-02-12T07:17:53.850Z,4.42
2023-02-12T07:18:53.787Z,4.41
2023-02-12T07:19:53.736Z,4.50
2023-02-12T07:20:53.674Z,4.40
2023-02-12T07:21:53.585Z,4.44
2023-02-12T07:22:53.580Z,4.44
2023-02-12T07:23:53.491Z,4.52
2023-02-12T07:24:53.436Z,4.48
2023-02-12T07:25:53.703Z,4.52
2023-02-12T07:26:53.299Z,4.40
2023-02-12T07:27:53.264Z,4.48
2023-02-12T07:28:53.206Z,4.40
2023-02-12T07:29:53.143Z,4.48
2023-02-12T07:30:53.093Z,4.45
2023-02-12T07:31:53.080Z,4.48
2023-02-12T07:32:52.954Z,4.48
2023-02-12T07:33:52.922Z,4.49
2023-02-12T07:34:52.825Z,4.53
2023-02-12T07:35:52.828Z,4.53
2023-02-12T07:36:52.737Z,4.50
2023-02-12T07:37:52.664Z,4.53
2023-02-12T07:38:52.619Z,4.55
2023-02-12T07:39:52.561Z,4.58
2023-02-12T07:40:52.511Z,4.53
2023-02-12T07:41:52.438Z,4.59
2023-02-12T07:42:52.359Z,4.53
2023-02-12T07:43:52.325Z,4.62
2023-02-12T07:44:52.277Z,4.59
2023-02-12T07:45:52.260Z,4.52
2023-02-12T07:46:52.132Z,4.67
2023-02-12T07:47:52.100Z,4.59
2023-02-12T07:48:52.037Z,4.55
2023-02-12T07:49:51.990Z,4.58
2023-02-12T07:50:51.922Z,4.66
2023-02-12T07:51:51.859Z,4.71
2023-02-12T07:52:51.838Z,4.67
2023-02-12T07:53:51.754Z,4.68
2023-02-12T07:54:51.674Z,4.66
2023-02-12T07:55:51.628Z,4.71
2023-02-12T07:56:51.561Z,4.63
2023-02-12T07:57:51.501Z,4.67
2023-02-12T07:58:51.467Z,4.68
2023-02-12T07:59:51.396Z,4.70
2023-02-12T08:00:51.333Z,4.68
2023-02-12T08:01:51.291Z,4.67
2023-02-12T08:02:51.213Z,4.66
2023-02-12T08:03:51.305Z,4.74
2023-02-12T08:04:51.111Z,4.66
2023-02-12T08:05:51.035Z,4.70
2023-02-12T08:06:51.033Z,4.67
2023-02-12T08:07:50.982Z,4.63
2023-02-12T08:08:51.007Z,4.67
2023-02-12T08:09:50.817Z,4.80
2023-02-12T08:10:50.745Z,4.67
2023-02-12T08:11:50.735Z,4.73
2023-02-12T08:12:50.653Z,4.73
2023-02-12T08:13:50.595Z,4.71
2023-02-12T08:14:50.505Z,4.77
2023-02-12T08:15:50.461Z,4.84
2023-02-12T08:16:50.494Z,4.87
2023-02-12T08:17:50.333Z,4.80
2023-02-12T08:18:50.304Z,4.84
2023-02-12T08:19:50.243Z,4.90
2023-02-12T08:20:50.167Z,4.86
2023-02-12T08:21:50.147Z,4.90
2023-02-12T08:22:50.046Z,4.89
2023-02-12T08:23:49.988Z,4.89
2023-02-12T08:24:49.927Z,5.02
2023-02-12T08:25:49.863Z,4.82
2023-02-12T08:26:49.859Z,5.02
2023-02-12T08:27:49.752Z,4.90
2023-02-12T08:28:49.686Z,4.97
2023-02-12T08:29:49.604Z,5.04
2023-02-12T08:30:49.599Z,5.00
2023-02-12T08:31:49.635Z,4.97
2023-02-12T08:32:49.474Z,5.07
2023-02-12T08:33:49.379Z,5.07
2023-02-12T08:34:49.368Z,5.04
2023-02-12T08:35:49.277Z,5.14
2023-02-12T08:36:49.271Z,5.05
2023-02-12T08:37:49.175Z,5.18
2023-02-12T08:38:49.117Z,5.10
2023-02-12T08:39:49.086Z,5.18
2023-02-12T08:40:48.988Z,5.17
2023-02-12T08:41:48.964Z,5.20
2023-02-12T08:42:48.884Z,5.12
2023-02-12T08:43:48.926Z,5.17
2023-02-12T08:44:48.771Z,5.15
2023-02-12T08:45:48.717Z,5.18
2023-02-12T08:46:48.676Z,5.23
2023-02-12T08:47:48.599Z,5.15
2023-02-12T08:48:48.525Z,5.21
2023-02-12T08:49:48.471Z,5.25
2023-02-12T08:50:48.405Z,5.29
2023-02-12T08:51:48.371Z,5.30
2023-02-12T08:52:48.303Z,5.28
2023-02-12T08:53:48.251Z,5.36
2023-02-12T08:54:48.189Z,5.41
2023-02-12T08:55:48.115Z,5.41
2023-02-12T08:56:48.068Z,5.39
2023-02-12T08:57:47.997Z,5.41
2023-02-12T08:58:47.959Z,5.48
2023-02-12T08:59:47.937Z,5.50
2023-02-12T09:00:47.836Z,5.47
2023-02-12T09:01:47.777Z,5.46
2023-02-12T09:02:47.779Z,5.47
2023-02-12T09:03:47.661Z,5.48
2023-02-12T09:04:47.605Z,5.56
2023-02-12T09:05:47.531Z,5.59
2023-02-12T09:06:47.448Z,5.71
2023-02-12T09:07:47.412Z,5.69
2023-02-12T09:08:47.374Z,5.66
2023-02-12T09:09:47.330Z,5.59
2023-02-12T09:10:47.221Z,5.75
2023-02-12T09:11:47.200Z,5.71
2023-02-12T09:12:47.131Z,5.82
2023-02-12T09:13:47.067Z,5.80
2023-02-12T09:14:47.035Z,5.87
2023-02-12T09:15:46.963Z,5.94
2023-02-12T09:16:47.014Z,5.87
2023-02-12T09:17:46.872Z,6.07
2023-02-12T09:18:46.805Z,6.02
2023-02-12T09:19:46.752Z,6.07
2023-02-12T09:20:46.658Z,6.05
2023-02-12T09:21:46.624Z,6.09
2023-02-12T09:22:46.559Z,6.19
2023-02-12T09:23:46.499Z,6.11
2023-02-12T09:24:46.466Z,6.26
2023-02-12T09:25:46.399Z,6.24
2023-02-12T09:26:46.314Z,6.27
2023-02-12T09:27:46.267Z,6.26
2023-02-12T09:28:46.200Z,6.36
2023-02-12T09:29:46.126Z,6.44
2023-02-12T09:30:46.125Z,6.49
2023-02-12T09:31:46.128Z,6.57
2023-02-12T09:32:45.968Z,6.70
2023-02-12T09:33:46.699Z,6.67
2023-02-12T09:34:45.883Z,6.77
2023-02-12T09:35:45.793Z,6.87
2023-02-12T09:36:45.751Z,6.88
2023-02-12T09:37:45.661Z,7.03
2023-02-12T09:38:45.625Z,7.20
2023-02-12T09:39:45.570Z,7.25
2023-02-12T09:40:45.548Z,7.25
2023-02-12T09:41:45.452Z,7.31
2023-02-12T09:42:45.416Z,7.42
2023-02-12T09:43:45.340Z,7.47
2023-02-12T09:44:45.291Z,7.50
2023-02-12T09:45:45.228Z,7.58
2023-02-12T09:46:45.240Z,7.57
2023-02-12T09:47:45.084Z,7.67
2023-02-12T09:48:45.072Z,7.75
2023-02-12T09:49:45.024Z,7.77
2023-02-12T09:50:44.936Z,7.79
2023-02-12T09:51:44.883Z,7.76
2023-02-12T09:52:44.842Z,7.87
2023-02-12T09:53:44.762Z,7.87
2023-02-12T09:54:44.711Z,7.91
2023-02-12T09:55:44.690Z,7.94
2023-02-12T09:56:44.577Z,8.03
2023-02-12T09:57:44.564Z,8.06
2023-02-12T09:58:44.496Z,8.06
2023-02-12T09:59:44.476Z,8.13
2023-02-12T10:00:44.402Z,8.15
2023-02-12T10:01:44.334Z,8.16
2023-02-12T10:02:44.255Z,8.20
2023-02-12T10:03:44.204Z,8.31
2023-02-12T10:04:59.838Z,8.38
2023-02-12T10:05:44.086Z,8.60
2023-02-12T10:06:44.070Z,8.66
2023-02-12T10:07:43.968Z,8.81
2023-02-12T10:08:43.930Z,8.82
2023-02-12T10:09:43.871Z,9.00
2023-02-12T10:10:43.840Z,9.14
2023-02-12T10:11:43.733Z,9.23
2023-02-12T10:12:43.719Z,9.23
2023-02-12T10:13:43.649Z,9.37
2023-02-12T10:14:43.621Z,9.36
2023-02-12T10:15:43.639Z,9.26
2023-02-12T10:16:43.474Z,9.19
2023-02-12T10:17:43.412Z,9.14
2023-02-12T10:18:43.397Z,9.06
2023-02-12T10:19:43.301Z,9.00
2023-02-12T10:20:43.286Z,8.88
2023-02-12T10:21:43.210Z,8.74
2023-02-12T10:22:55.043Z,8.69
2023-02-12T10:23:43.096Z,8.63
2023-02-12T10:24:43.008Z,8.73
2023-02-12T10:25:43.000Z,8.66
2023-02-12T10:26:42.931Z,8.58
2023-02-12T10:27:42.876Z,8.55
2023-02-12T10:28:42.951Z,8.51
2023-02-12T10:29:42.740Z,8.53
2023-02-12T10:30:42.756Z,8.51
2023-02-12T10:31:42.809Z,8.52
2023-02-12T10:32:42.589Z,8.53
2023-02-12T10:33:42.521Z,8.55
2023-02-12T10:34:42.509Z,8.61
2023-02-12T10:35:42.429Z,8.64
2023-02-12T10:36:42.350Z,8.51
2023-02-12T10:37:42.335Z,8.55
2023-02-12T10:38:42.274Z,8.66
2023-02-12T10:39:42.207Z,8.56
2023-02-12T10:40:42.145Z,8.64
2023-02-12T10:41:42.065Z,8.60
2023-02-12T10:42:42.042Z,8.63
2023-02-12T10:43:41.972Z,8.58
2023-02-12T10:44:41.943Z,8.51
2023-02-12T10:45:41.845Z,8.63
2023-02-12T10:46:41.859Z,8.51
2023-02-12T10:47:41.756Z,8.48
2023-02-12T10:48:41.689Z,8.48
2023-02-12T10:49:41.647Z,8.48
2023-02-12T10:50:41.600Z,8.44
2023-02-12T10:51:41.552Z,8.45
2023-02-12T10:52:41.462Z,8.36
2023-02-12T10:53:41.442Z,8.36
2023-02-12T10:54:41.352Z,8.38
2023-02-12T10:55:41.273Z,8.42
2023-02-12T10:56:41.248Z,8.42
2023-02-12T10:57:41.164Z,8.49
2023-02-12T10:58:41.150Z,8.61
2023-02-12T10:59:41.073Z,8.64
2023-02-12T11:00:41.012Z,8.71
2023-02-12T11:01:40.984Z,8.70
2023-02-12T11:02:40.907Z,8.73
2023-02-12T11:03:40.848Z,8.81
2023-02-12T11:04:40.846Z,8.88
2023-02-12T11:05:40.711Z,8.91
2023-02-12T11:06:40.708Z,9.00
2023-02-12T11:07:40.627Z,8.95
2023-02-12T11:08:40.575Z,9.04
2023-02-12T11:09:40.518Z,9.06
2023-02-12T11:10:40.457Z,9.13
2023-02-12T11:11:40.456Z,9.11
2023-02-12T11:12:40.344Z,9.22
2023-02-12T11:13:40.298Z,9.18
2023-02-12T11:14:40.243Z,9.26
2023-02-12T11:15:40.248Z,9.36
2023-02-12T11:16:40.128Z,9.28
2023-02-12T11:17:40.073Z,9.31
2023-02-12T11:18:40.052Z,9.28
2023-02-12T11:19:39.974Z,9.36
2023-02-12T11:20:39.909Z,9.37
2023-02-12T11:21:39.864Z,9.39
2023-02-12T11:22:39.830Z,9.44
2023-02-12T11:23:39.717Z,9.41
2023-02-12T11:24:39.697Z,9.36
2023-02-12T11:25:39.629Z,9.43
2023-02-12T11:26:39.597Z,9.43
2023-02-12T11:27:39.538Z,9.39
2023-02-12T11:28:39.563Z,9.40
2023-02-12T11:29:39.415Z,9.51
2023-02-12T11:30:39.384Z,9.47
2023-02-12T11:31:39.385Z,9.51
2023-02-12T11:32:39.267Z,9.55
2023-02-12T11:33:39.198Z,9.54
2023-02-12T11:34:39.138Z,9.50
2023-02-12T11:35:39.108Z,9.43
2023-02-12T11:36:39.038Z,9.54
2023-02-12T11:37:38.976Z,9.46
2023-02-12T11:38:38.939Z,9.51
2023-02-12T11:39:38.874Z,9.47
2023-02-12T11:40:38.822Z,9.48
2023-02-12T11:41:38.762Z,9.48
2023-02-12T11:42:38.724Z,9.58
2023-02-12T11:43:38.673Z,9.61
2023-02-12T11:44:38.603Z,9.58
2023-02-12T11:45:38.531Z,9.54
2023-02-12T11:46:38.531Z,9.50
2023-02-12T11:47:38.471Z,9.54
2023-02-12T11:48:38.370Z,9.56
2023-02-12T11:49:38.311Z,9.58
2023-02-12T11:50:38.248Z,9.65
2023-02-12T11:51:38.208Z,9.54
2023-02-12T11:52:38.180Z,9.59
2023-02-12T11:53:38.099Z,9.54
2023-02-12T11:54:38.029Z,9.48
2023-02-12T11:55:37.979Z,9.41
2023-02-12T11:56:37.965Z,9.55
2023-02-12T11:57:37.886Z,9.47
2023-02-12T11:58:37.822Z,9.44
2023-02-12T11:59:37.795Z,9.43
2023-02-12T12:00:37.683Z,9.46
2023-02-12T12:01:37.680Z,9.34
2023-02-12T12:02:37.616Z,9.39
2023-02-12T12:03:37.546Z,9.36
2023-02-12T12:04:37.507Z,9.36
2023-02-12T12:05:37.436Z,9.37
2023-02-12T12:06:37.359Z,9.36
2023-02-12T12:07:37.333Z,9.43
2023-02-12T12:08:37.347Z,9.43
2023-02-12T12:09:37.251Z,9.40
2023-02-12T12:10:37.158Z,9.40
2023-02-12T12:11:37.120Z,9.37
2023-02-12T12:12:37.063Z,9.51
2023-02-12T12:13:36.994Z,9.51
2023-02-12T12:14:36.961Z,9.55
2023-02-12T12:15:36.899Z,9.59
2023-02-12T12:16:36.887Z,9.72
2023-02-12T12:17:36.800Z,9.68
2023-02-12T12:18:36.730Z,9.68
2023-02-12T12:19:36.652Z,9.62
2023-02-12T12:20:36.648Z,9.59
2023-02-12T12:21:36.564Z,9.69
2023-02-12T12:22:36.511Z,9.72
2023-02-12T12:23:36.464Z,9.61
2023-02-12T12:24:36.393Z,9.58
2023-02-12T12:25:36.347Z,9.59
2023-02-12T12:26:36.275Z,9.55
2023-02-12T12:27:36.282Z,9.46
2023-02-12T12:28:36.247Z,9.58
2023-02-12T12:29:36.119Z,9.48
2023-02-12T12:30:36.122Z,9.44
2023-02-12T12:31:36.070Z,9.40
2023-02-12T12:32:35.957Z,9.54
2023-02-12T12:33:35.914Z,9.54
2023-02-12T12:34:35.841Z,9.54
2023-02-12T12:35:35.775Z,9.41
2023-02-12T12:36:35.761Z,9.43
2023-02-12T12:37:35.662Z,9.40
2023-02-12T12:38:35.636Z,9.41
2023-02-12T12:39:35.541Z,9.36
2023-02-12T12:40:35.510Z,9.40
2023-02-12T12:41:35.497Z,9.39
2023-02-12T12:42:35.391Z,9.37
2023-02-12T12:43:35.334Z,9.32
2023-02-12T12:44:35.301Z,9.31
2023-02-12T12:45:35.308Z,9.43
2023-02-12T12:46:35.219Z,9.32
2023-02-12T12:47:35.160Z,9.37
2023-02-12T12:48:35.081Z,9.32
2023-02-12T12:49:35.092Z,9.39
2023-02-12T12:50:34.973Z,9.36
2023-02-12T12:51:34.918Z,9.39
2023-02-12T12:52:34.909Z,9.31
2023-02-12T12:53:34.802Z,9.36
2023-02-12T12:54:34.768Z,9.40
2023-02-12T12:55:34.727Z,9.36
2023-02-12T12:56:34.670Z,9.41
2023-02-12T12:57:34.598Z,9.37
2023-02-12T12:58:34.547Z,9.39
2023-02-12T12:59:34.478Z,9.46
2023-02-12T13:00:34.409Z,9.41
2023-02-12T13:01:34.386Z,9.43
2023-02-12T13:02:34.400Z,9.46
2023-02-12T13:03:34.264Z,9.56
2023-02-12T13:04:34.232Z,9.48
2023-02-12T13:05:34.149Z,9.51
2023-02-12T13:06:34.106Z,9.50
2023-02-12T13:07:34.033Z,9.55
2023-02-12T13:08:33.995Z,9.54
2023-02-12T13:09:33.959Z,9.55
2023-02-12T13:10:33.876Z,9.55
2023-02-12T13:11:33.825Z,9.64
2023-02-12T13:12:33.742Z,9.55
2023-02-12T13:13:33.738Z,9.66
2023-02-12T13:14:33.669Z,9.65
2023-02-12T13:15:33.603Z,9.66
2023-02-12T13:16:33.612Z,9.61
2023-02-12T13:17:33.490Z,9.64